Time;durP1;ratioP1;P1;durP2;ratioP2;P2;SDS_P1;SDS_P2;PMS_P1;PMS_P2;Temp;Humidity;BMP_temperature;BMP_pressure;BME280_temperature;BME280_humidity;BME280_pressure;Samples;Min_cycle;Max_cycle;Signal;HPM_P1;HPM_P2
2023/06/25 00:09:28;;;;;;;;;;;20.20;99.90;;;;;;6687170;88;20081;-81
2023/06/25 00:19:28;;;;;;;;;;;20.10;99.90;;;;;;6760570;88;20063;-82
2023/06/25 00:29:28;;;;;;;;;;;20.10;99.90;;;;;;6777679;88;20086;-81
2023/06/25 00:39:29;;;;;;;;;;;19.90;99.90;;;;;;6772743;88;20553;-81
2023/06/25 00:49:33;;;;;;;;;;;19.60;99.90;;;;;;6765702;88;20063;-81
2023/06/25 00:59:43;;;;;;;;;;;19.50;99.90;;;;;;6684999;89;20077;-80
2023/06/25 01:09:46;;;;;;;;;;;19.30;99.90;;;;;;6683971;88;20097;-81
2023/06/25 01:19:47;;;;;;;;;;;19.30;99.90;;;;;;6684327;89;20051;-82
2023/06/25 01:29:51;;;;;;;;;;;19.20;99.90;;;;;;6707366;88;20127;-81
2023/06/25 01:39:53;;;;;;;;;;;19.10;99.90;;;;;;6671765;89;20122;-81
2023/06/25 01:49:54;;;;;;;;;;;18.90;99.90;;;;;;6701191;88;20064;-81
2023/06/25 01:59:54;;;;;;;;;;;18.80;99.90;;;;;;6695818;89;20083;-81
2023/06/25 02:09:54;;;;;;;;;;;18.60;99.90;;;;;;6682403;88;20059;-81
2023/06/25 02:19:55;;;;;;;;;;;18.40;99.90;;;;;;6697127;88;20111;-81
2023/06/25 02:29:55;;;;;;;;;;;18.20;99.90;;;;;;6680142;89;20108;-81
2023/06/25 02:39:56;;;;;;;;;;;18.10;99.90;;;;;;6693452;88;20083;-81
2023/06/25 02:49:56;;;;;;;;;;;18.10;99.90;;;;;;6691877;88;20050;-80
2023/06/25 02:59:57;;;;;;;;;;;18.00;99.90;;;;;;6678870;89;20056;-80
2023/06/25 03:09:57;;;;;;;;;;;18.10;99.90;;;;;;6688938;89;20093;-81
2023/06/25 03:19:58;;;;;;;;;;;18.10;99.90;;;;;;6687341;88;20052;-81
2023/06/25 03:29:58;;;;;;;;;;;18.00;99.90;;;;;;6690661;88;20524;-79
2023/06/25 03:39:58;;;;;;;;;;;18.10;99.90;;;;;;6684809;88;20060;-79
2023/06/25 03:49:59;;;;;;;;;;;17.90;99.90;;;;;;6684504;88;20589;-79
2023/06/25 03:59:59;;;;;;;;;;;17.90;99.90;;;;;;6680641;88;20115;-79
2023/06/25 04:10:00;;;;;;;;;;;17.80;99.90;;;;;;6680928;88;20561;-79
2023/06/25 04:20:00;;;;;;;;;;;17.90;99.90;;;;;;6681903;88;20073;-80
2023/06/25 04:30:01;;;;;;;;;;;18.10;99.90;;;;;;6683522;88;20075;-79
2023/06/25 04:40:02;;;;;;;;;;;18.20;99.90;;;;;;6667351;88;20176;-79
2023/06/25 04:50:03;;;;;;;;;;;18.20;99.90;;;;;;6675096;77;20062;-76
2023/06/25 05:00:04;;;;;;;;;;;18.30;99.90;;;;;;6679827;89;20151;-76
2023/06/25 05:10:05;;;;;;;;;;;18.40;99.90;;;;;;6684253;88;20073;-77
2023/06/25 05:20:05;;;;;;;;;;;18.60;99.90;;;;;;6662119;89;20172;-77
2023/06/25 05:30:06;;;;;;;;;;;18.90;99.90;;;;;;6662699;88;20348;-77
2023/06/25 05:40:07;;;;;;;;;;;19.30;99.90;;;;;;6660040;88;20110;-77
2023/06/25 05:50:08;;;;;;;;;;;19.60;99.90;;;;;;6665789;87;20068;-76
2023/06/25 06:00:08;;;;;;;;;;;20.00;99.90;;;;;;6695032;88;20534;-77
2023/06/25 06:10:10;;;;;;;;;;;20.70;99.90;;;;;;6685053;88;20071;-77
2023/06/25 06:20:10;;;;;;;;;;;21.60;99.90;;;;;;6669150;88;20513;-77
2023/06/25 06:30:11;;;;;;;;;;;22.60;99.90;;;;;;6675038;88;20251;-76
2023/06/25 06:40:12;;;;;;;;;;;23.20;99.90;;;;;;6666161;88;20057;-77
2023/06/25 06:50:12;;;;;;;;;;;23.90;99.90;;;;;;6682622;89;20076;-77
2023/06/25 07:00:15;;;;;;;;;;;24.60;99.90;;;;;;6679998;88;20080;-78
2023/06/25 07:10:16;;;;;;;;;;;24.90;99.90;;;;;;6668295;88;20126;-78
2023/06/25 07:20:16;;;;;;;;;;;25.60;99.90;;;;;;6672021;89;20107;-77
2023/06/25 07:30:16;;;;;;;;;;;25.90;99.90;;;;;;6668734;89;20060;-80
2023/06/25 07:40:17;;;;;;;;;;;26.30;99.90;;;;;;6662818;88;20212;-76
2023/06/25 07:50:17;;;;;;;;;;;26.40;99.90;;;;;;6739994;88;20195;-80
2023/06/25 08:00:19;;;;;;;;;;;26.60;99.90;;;;;;6756235;88;20187;-78
2023/06/25 08:10:19;;;;;;;;;;;27.80;99.80;;;;;;6756672;88;20133;-79
2023/06/25 08:20:20;;;;;;;;;;;27.90;98.80;;;;;;6769258;88;20035;-86
2023/06/25 08:30:20;;;;;;;;;;;28.70;97.30;;;;;;6782364;87;20041;-82
2023/06/25 08:40:21;;;;;;;;;;;28.80;97.10;;;;;;6774199;87;20023;-83
2023/06/25 09:00:25;;;;;;;;;;;30.30;94.30;;;;;;6753965;88;20557;-82
2023/06/25 09:10:30;;;;;;;;;;;30.20;94.10;;;;;;6777143;87;20090;-80
2023/06/25 09:30:35;;;;;;;;;;;30.80;91.50;;;;;;6774604;87;20107;-83
2023/06/25 09:40:35;;;;;;;;;;;31.90;90.40;;;;;;6775488;87;20080;-83
2023/06/25 09:50:38;;;;;;;;;;;31.70;86.70;;;;;;6785602;87;20125;-83
2023/06/25 10:00:39;;;;;;;;;;;32.80;85.10;;;;;;6785411;87;20567;-83
2023/06/25 10:10:39;;;;;;;;;;;32.80;81.70;;;;;;6785119;87;20009;-83
2023/06/25 10:20:44;;;;;;;;;;;33.00;80.40;;;;;;6785058;87;20019;-83
2023/06/25 10:30:48;;;;;;;;;;;32.80;79.00;;;;;;6750419;88;20053;-82
2023/06/25 10:40:49;;;;;;;;;;;33.00;75.00;;;;;;6745464;88;20162;-84
2023/06/25 10:50:51;;;;;;;;;;;32.10;76.30;;;;;;6749527;88;20029;-80
2023/06/25 11:00:53;;;;;;;;;;;33.10;76.30;;;;;;6750499;88;20041;-80
2023/06/25 11:10:54;;;;;;;;;;;33.90;73.80;;;;;;6759846;88;20093;-81
2023/06/25 11:20:57;;;;;;;;;;;33.40;75.10;;;;;;6759444;87;20049;-82
2023/06/25 11:30:58;;;;;;;;;;;32.90;71.90;;;;;;6737662;88;20049;-81
2023/06/25 11:40:59;;;;;;;;;;;32.90;72.10;;;;;;6742519;88;20653;-83
2023/06/25 11:51:04;;;;;;;;;;;34.20;71.50;;;;;;6743984;88;20139;-82
2023/06/25 12:21:50;;;;;;;;;;;35.80;68.10;;;;;;6778918;87;20053;-82
2023/06/25 12:31:50;;;;;;;;;;;33.60;67.40;;;;;;6775481;88;20046;-82
2023/06/25 12:41:50;;;;;;;;;;;34.40;67.40;;;;;;6776304;87;20070;-82
2023/06/25 12:51:51;;;;;;;;;;;35.70;66.40;;;;;;6770625;87;20059;-81
2023/06/25 13:01:55;;;;;;;;;;;35.70;66.70;;;;;;6771779;87;20048;-82
2023/06/25 13:11:56;;;;;;;;;;;35.10;64.50;;;;;;6733466;87;20526;-81
2023/06/25 13:21:56;;;;;;;;;;;35.30;63.70;;;;;;6754834;88;20073;-82
2023/06/25 13:31:57;;;;;;;;;;;36.10;63.60;;;;;;6769538;88;20068;-82
2023/06/25 13:41:58;;;;;;;;;;;35.60;63.50;;;;;;6768072;87;20141;-83
2023/06/25 13:51:58;;;;;;;;;;;36.40;64.30;;;;;;6748890;88;20101;-81
2023/06/25 14:01:59;;;;;;;;;;;36.80;62.10;;;;;;6724538;88;20089;-80
2023/06/25 14:11:59;;;;;;;;;;;36.30;61.90;;;;;;6751692;87;20197;-81
2023/06/25 14:21:59;;;;;;;;;;;35.70;62.90;;;;;;6748543;88;20548;-80
2023/06/25 14:32:00;;;;;;;;;;;36.20;62.20;;;;;;6764036;87;20053;-81
2023/06/25 14:42:00;;;;;;;;;;;36.40;62.10;;;;;;6751584;88;20052;-81
2023/06/25 14:52:01;;;;;;;;;;;35.90;63.20;;;;;;6751971;88;20032;-82
2023/06/25 15:02:01;;;;;;;;;;;35.90;62.10;;;;;;6744957;88;20517;-82
2023/06/25 15:12:02;;;;;;;;;;;36.60;61.90;;;;;;6766895;87;20463;-81
2023/06/25 15:22:03;;;;;;;;;;;36.10;61.10;;;;;;6756486;88;20044;-80
2023/06/25 15:32:04;;;;;;;;;;;35.60;61.60;;;;;;6753935;88;20063;-80
2023/06/25 15:42:05;;;;;;;;;;;35.50;62.60;;;;;;6761017;87;20045;-81
2023/06/25 15:52:05;;;;;;;;;;;36.00;62.30;;;;;;6755537;88;20064;-81
2023/06/25 16:02:05;;;;;;;;;;;35.90;61.80;;;;;;6744186;87;20044;-80
2023/06/25 16:12:06;;;;;;;;;;;35.40;61.50;;;;;;6753523;88;20547;-79
2023/06/25 16:22:06;;;;;;;;;;;35.40;62.80;;;;;;6740435;88;20047;-81
2023/06/25 16:32:07;;;;;;;;;;;35.20;63.50;;;;;;6751069;87;20057;-78
2023/06/25 16:42:07;;;;;;;;;;;34.40;64.60;;;;;;6749213;87;20075;-78
2023/06/25 17:02:11;;;;;;;;;;;33.60;64.40;;;;;;6751639;88;20553;-83
2023/06/25 17:12:13;;;;;;;;;;;33.30;65.00;;;;;;6752513;88;20149;-84
2023/06/25 17:22:14;;;;;;;;;;;32.90;64.20;;;;;;6755667;88;20142;-81
2023/06/25 17:32:14;;;;;;;;;;;33.20;64.60;;;;;;6762353;88;20091;-82
2023/06/25 17:42:15;;;;;;;;;;;33.00;64.60;;;;;;6767741;88;20646;-81
2023/06/25 17:52:16;;;;;;;;;;;32.50;64.70;;;;;;6761324;87;20052;-79
2023/06/25 18:07:39;;;;;;;1999.90;999.90;;;32.00;65.60;;;;;;6786839;86;20194;-79
2023/06/25 18:17:42;;;;;;;1999.90;999.90;;;31.80;66.40;;;;;;6785888;87;20350;-78
2023/06/25 18:27:43;;;;;;;1999.90;999.90;;;31.60;67.30;;;;;;6791328;87;20189;-78
2023/06/25 18:37:44;;;;;;;1999.90;999.90;;;31.20;67.70;;;;;;6793215;87;20646;-80
2023/06/25 18:47:44;;;;;;;1999.90;999.90;;;31.00;68.70;;;;;;6781249;87;20186;-79
2023/06/25 18:57:45;;;;;;;1999.90;999.90;;;30.70;70.30;;;;;;6776859;87;20741;-78
2023/06/25 19:07:46;;;;;;;1999.90;999.90;;;30.30;71.50;;;;;;6764373;87;20221;-78
2023/06/25 19:17:46;;;;;;;1999.90;999.90;;;30.00;73.10;;;;;;6762042;87;20304;-78
2023/06/25 19:27:47;;;;;;;1999.90;999.90;;;29.60;74.00;;;;;;6765169;88;20188;-80
2023/06/25 19:37:48;;;;;;;1999.90;999.90;;;29.10;75.10;;;;;;6768521;88;20212;-80
2023/06/25 19:47:48;;;;;;;1999.90;999.90;;;28.80;75.60;;;;;;6767682;88;20685;-79
2023/06/25 19:57:49;;;;;;;1999.90;999.90;;;28.30;76.40;;;;;;6759500;87;20245;-79
2023/06/25 20:07:50;;;;;;;1999.90;999.90;;;28.10;77.30;;;;;;6759438;88;20248;-80
2023/06/25 20:17:52;;;;;;;1999.90;999.90;;;27.80;78.30;;;;;;6764085;88;20200;-79
2023/06/25 20:27:52;;;;;;;1999.90;999.90;;;27.40;79.10;;;;;;6762169;88;20181;-79
2023/06/25 20:37:53;;;;;;;1999.90;999.90;;;27.30;79.60;;;;;;6757341;88;20680;-79
2023/06/25 20:47:54;;;;;;;1999.90;999.90;;;27.10;79.50;;;;;;6756646;88;20259;-79
2023/06/25 20:57:54;;;;;;;1999.90;999.90;;;27.00;79.10;;;;;;6759368;88;20201;-79
2023/06/25 21:07:55;;;;;;;1999.90;999.90;;;26.80;78.90;;;;;;6757759;88;20204;-82
2023/06/25 21:17:56;;;;;;;1999.90;999.90;;;26.50;79.00;;;;;;6761920;88;20211;-80
2023/06/25 21:27:57;;;;;;;1999.90;999.90;;;26.30;79.30;;;;;;6768474;87;20263;-80
2023/06/25 21:37:58;;;;;;;1999.90;999.90;;;26.20;79.90;;;;;;6768955;87;20696;-81
2023/06/25 21:47:58;;;;;;;1999.90;999.90;;;26.00;79.90;;;;;;6765853;87;20180;-79
2023/06/25 21:57:59;;;;;;;1999.90;999.90;;;25.80;80.70;;;;;;6767273;87;20262;-81
2023/06/25 22:07:59;;;;;;;1999.90;999.90;;;25.60;80.70;;;;;;6766307;87;20244;-82
2023/06/25 22:18:00;;;;;;;1999.90;999.90;;;25.50;81.30;;;;;;6758925;88;20181;-76
2023/06/25 22:28:01;;;;;;;1999.90;999.90;;;25.40;81.20;;;;;;6747724;88;20189;-77
2023/06/25 22:38:01;;;;;;;1999.90;999.90;;;25.30;81.40;;;;;;6748722;87;21742;-78
2023/06/25 22:48:02;;;;;;;1999.90;999.90;;;25.20;81.20;;;;;;6748905;88;20665;-78
2023/06/25 22:58:02;;;;;;;1999.90;999.90;;;25.00;81.80;;;;;;6749023;76;20248;-78
2023/06/25 23:08:03;;;;;;;1999.90;999.90;;;24.80;82.00;;;;;;6737749;88;20227;-77
2023/06/25 23:18:05;;;;;;;1999.90;999.90;;;24.70;82.60;;;;;;6744988;87;20238;-76
2023/06/25 23:28:07;;;;;;;1999.90;999.90;;;24.60;83.80;;;;;;6753338;87;20295;-77
2023/06/25 23:38:08;;;;;;;1999.90;999.90;;;24.20;84.70;;;;;;6739549;87;20338;-75
2023/06/25 23:48:10;;;;;;;1999.90;999.90;;;23.90;87.20;;;;;;6738475;87;20212;-75
2023/06/25 23:58:10;;;;;;;1999.90;999.90;;;23.50;90.20;;;;;;6737139;87;20233;-77
